Time;durP1;ratioP1;P1;durP2;ratioP2;P2;SDS_P1;SDS_P2;PMS_P1;PMS_P2;Temp;Humidity;BMP_temperature;BMP_pressure;BME280_temperature;BME280_humidity;BME280_pressure;Samples;Min_cycle;Max_cycle;Signal;HPM_P1;HPM_P2
2022/08/29 00:01:46;;;;;;;;;;;20.50;57.20;;;;;;484315;246;1046;-74
2022/08/29 00:03:48;;;;;;;;;;;20.50;57.10;;;;;;484310;246;1323;-74
2022/08/29 00:05:49;;;;;;;;;;;20.60;57.00;;;;;;484509;246;1309;-74
2022/08/29 00:07:51;;;;;;;;;;;20.60;57.10;;;;;;484313;246;1067;-74
2022/08/29 00:09:52;;;;;;;;;;;20.60;57.00;;;;;;484172;246;2188;-74
2022/08/29 00:11:53;;;;;;;;;;;20.50;57.10;;;;;;484408;246;1125;-74
2022/08/29 00:13:55;;;;;;;;;;;20.50;57.10;;;;;;484203;246;1141;-74
2022/08/29 00:15:56;;;;;;;;;;;20.50;57.20;;;;;;484336;246;1203;-74
2022/08/29 00:17:57;;;;;;;;;;;20.60;57.10;;;;;;484477;246;1179;-74
2022/08/29 00:19:59;;;;;;;;;;;20.50;57.10;;;;;;484421;246;1095;-74
2022/08/29 00:22:00;;;;;;;;;;;20.50;57.30;;;;;;484330;246;1215;-74
2022/08/29 00:24:01;;;;;;;;;;;20.60;57.20;;;;;;484261;245;1042;-74
2022/08/29 00:26:03;;;;;;;;;;;20.50;57.30;;;;;;484218;246;1292;-74
2022/08/29 00:28:04;;;;;;;;;;;20.60;57.10;;;;;;484408;246;1140;-74
2022/08/29 00:30:05;;;;;;;;;;;20.50;57.20;;;;;;484281;246;2200;-74
2022/08/29 00:32:07;;;;;;;;;;;20.50;57.30;;;;;;484312;246;1228;-74
2022/08/29 00:34:08;;;;;;;;;;;20.50;57.40;;;;;;484394;246;1132;-74
2022/08/29 00:36:09;;;;;;;;;;;20.50;57.40;;;;;;484322;246;1170;-74
2022/08/29 00:38:11;;;;;;;;;;;20.60;57.30;;;;;;484259;246;1181;-74
2022/08/29 00:40:12;;;;;;;;;;;20.50;57.20;;;;;;484171;246;1047;-74
2022/08/29 00:42:13;;;;;;;;;;;20.50;57.40;;;;;;484490;246;1289;-74
2022/08/29 00:44:15;;;;;;;;;;;20.60;57.10;;;;;;484297;246;1140;-74
2022/08/29 00:46:16;;;;;;;;;;;20.70;57.10;;;;;;484268;246;1282;-74
2022/08/29 00:48:17;;;;;;;;;;;20.60;56.90;;;;;;484668;246;1152;-74
2022/08/29 00:50:19;;;;;;;;;;;20.60;57.00;;;;;;484148;246;2196;-74
2022/08/29 00:52:20;;;;;;;;;;;20.60;57.10;;;;;;484313;246;1159;-74
2022/08/29 00:54:21;;;;;;;;;;;20.60;57.10;;;;;;484283;245;1101;-74
2022/08/29 00:56:23;;;;;;;;;;;20.70;56.90;;;;;;484296;246;1162;-74
2022/08/29 00:58:24;;;;;;;;;;;20.70;56.80;;;;;;484498;246;1194;-74
2022/08/29 01:00:25;;;;;;;;;;;20.70;56.70;;;;;;484279;246;1236;-74
2022/08/29 01:02:27;;;;;;;;;;;20.80;56.60;;;;;;484193;246;1183;-74
2022/08/29 01:04:28;;;;;;;;;;;20.70;56.80;;;;;;484314;246;1228;-74
2022/08/29 01:06:30;;;;;;;;;;;20.80;56.50;;;;;;484297;245;1248;-74
2022/08/29 01:08:31;;;;;;;;;;;20.70;56.60;;;;;;484283;246;1135;-74
2022/08/29 01:12:52;;;;;;;;;;;20.60;57.00;;;;;;484401;246;1322;-74
2022/08/29 01:14:53;;;;;;;;;;;20.60;57.00;;;;;;484309;246;1401;-74
2022/08/29 01:16:55;;;;;;;;;;;20.60;57.00;;;;;;484256;246;1273;-74
2022/08/29 01:18:56;;;;;;;;;;;20.60;57.00;;;;;;484277;246;1486;-74
2022/08/29 01:20:57;;;;;;;;;;;20.60;57.00;;;;;;484368;246;1101;-74
2022/08/29 01:22:59;;;;;;;;;;;20.50;57.10;;;;;;484308;246;1051;-74
2022/08/29 01:25:00;;;;;;;;;;;20.60;56.90;;;;;;484342;246;1214;-74
2022/08/29 01:27:01;;;;;;;;;;;20.50;57.00;;;;;;484176;246;1206;-74
2022/08/29 01:29:03;;;;;;;;;;;20.60;56.90;;;;;;484388;246;1220;-74
2022/08/29 01:31:05;;;;;;;;;;;20.60;56.90;;;;;;484461;242;2195;-74
2022/08/29 01:33:06;;;;;;;;;;;20.60;56.70;;;;;;484284;246;1209;-74
2022/08/29 01:35:08;;;;;;;;;;;20.70;56.70;;;;;;484484;246;1083;-74
2022/08/29 01:37:09;;;;;;;;;;;20.70;56.60;;;;;;484524;246;1199;-75
2022/08/29 01:39:10;;;;;;;;;;;20.60;56.60;;;;;;484282;246;1138;-74
2022/08/29 01:41:12;;;;;;;;;;;20.70;56.60;;;;;;484374;246;1137;-74
2022/08/29 01:43:13;;;;;;;;;;;20.70;56.60;;;;;;484270;246;1320;-74
2022/08/29 01:45:14;;;;;;;;;;;20.60;56.80;;;;;;484425;246;1128;-74
2022/08/29 01:47:16;;;;;;;;;;;20.50;56.90;;;;;;484375;246;1202;-74
2022/08/29 01:49:17;;;;;;;;;;;20.70;56.70;;;;;;484279;246;1189;-74
2022/08/29 01:51:18;;;;;;;;;;;20.70;56.50;;;;;;484573;246;2187;-74
2022/08/29 01:53:20;;;;;;;;;;;20.70;56.30;;;;;;484354;246;1127;-74
2022/08/29 01:55:21;;;;;;;;;;;20.70;56.50;;;;;;484258;246;1106;-74
2022/08/29 01:57:22;;;;;;;;;;;20.70;56.60;;;;;;484377;246;1158;-74
2022/08/29 01:59:25;;;;;;;;;;;20.60;56.70;;;;;;484237;246;1108;-74
2022/08/29 02:01:25;;;;;;;;;;;20.60;56.80;;;;;;484237;246;1450;-74
2022/08/29 02:03:27;;;;;;;;;;;20.70;56.50;;;;;;484279;246;1130;-74
2022/08/29 02:05:28;;;;;;;;;;;20.80;56.30;;;;;;484315;246;1167;-74
2022/08/29 02:07:29;;;;;;;;;;;20.80;56.30;;;;;;484274;246;1291;-74
2022/08/29 02:09:31;;;;;;;;;;;20.90;56.00;;;;;;484296;246;1182;-74
2022/08/29 02:11:34;;;;;;;;;;;20.80;56.10;;;;;;484292;246;2180;-74
2022/08/29 02:13:34;;;;;;;;;;;20.80;56.20;;;;;;484243;246;1503;-74
2022/08/29 02:15:35;;;;;;;;;;;20.80;56.20;;;;;;484366;246;1185;-74
2022/08/29 02:17:36;;;;;;;;;;;20.70;56.40;;;;;;484580;246;1254;-74
2022/08/29 02:19:38;;;;;;;;;;;20.70;56.40;;;;;;484309;246;1206;-74
2022/08/29 02:21:40;;;;;;;;;;;20.70;56.50;;;;;;484265;246;1152;-74
2022/08/29 02:23:41;;;;;;;;;;;20.60;56.60;;;;;;484219;246;1241;-74
2022/08/29 02:25:43;;;;;;;;;;;20.70;56.50;;;;;;484141;246;1207;-74
2022/08/29 02:27:44;;;;;;;;;;;20.60;56.40;;;;;;484233;246;1201;-74
2022/08/29 02:29:45;;;;;;;;;;;20.70;56.40;;;;;;484256;246;1189;-74
2022/08/29 02:31:47;;;;;;;;;;;20.70;56.30;;;;;;484258;246;2211;-74
2022/08/29 02:33:48;;;;;;;;;;;20.70;56.20;;;;;;484246;246;1431;-74
2022/08/29 02:35:49;;;;;;;;;;;20.70;56.30;;;;;;484134;246;1127;-74
2022/08/29 02:37:50;;;;;;;;;;;20.90;55.90;;;;;;484162;246;1234;-74
2022/08/29 02:39:52;;;;;;;;;;;20.90;55.60;;;;;;484221;246;1215;-74
2022/08/29 02:41:53;;;;;;;;;;;20.90;55.50;;;;;;484250;246;1582;-74
2022/08/29 02:43:55;;;;;;;;;;;20.90;55.70;;;;;;484277;246;1112;-74
2022/08/29 02:45:56;;;;;;;;;;;20.90;55.50;;;;;;484439;246;1131;-74
2022/08/29 02:47:57;;;;;;;;;;;20.90;55.30;;;;;;484311;246;1120;-74
2022/08/29 02:49:59;;;;;;;;;;;20.90;55.40;;;;;;484158;246;1149;-74
2022/08/29 02:52:01;;;;;;;;;;;21.00;55.20;;;;;;484257;246;2191;-74
2022/08/29 02:54:02;;;;;;;;;;;21.00;55.00;;;;;;484241;246;1321;-74
2022/08/29 02:56:03;;;;;;;;;;;20.90;55.10;;;;;;484312;246;1142;-74
2022/08/29 02:58:04;;;;;;;;;;;20.90;55.20;;;;;;484303;246;1154;-74
2022/08/29 03:00:07;;;;;;;;;;;20.80;55.30;;;;;;484270;246;1142;-74
2022/08/29 03:02:07;;;;;;;;;;;20.80;55.40;;;;;;484094;246;1406;-74
2022/08/29 03:04:09;;;;;;;;;;;20.90;55.20;;;;;;484288;242;1540;-74
2022/08/29 03:06:11;;;;;;;;;;;20.90;55.00;;;;;;484283;246;1249;-74
2022/08/29 03:08:12;;;;;;;;;;;21.00;55.00;;;;;;484245;246;1396;-74
2022/08/29 03:10:13;;;;;;;;;;;21.00;54.70;;;;;;484222;246;2200;-74
2022/08/29 03:12:14;;;;;;;;;;;21.00;54.60;;;;;;484305;246;1162;-74
2022/08/29 03:14:16;;;;;;;;;;;21.00;54.70;;;;;;484195;246;1150;-74
2022/08/29 03:16:17;;;;;;;;;;;21.10;54.60;;;;;;484378;246;1089;-74
2022/08/29 03:18:18;;;;;;;;;;;21.10;54.50;;;;;;484336;246;1244;-74
2022/08/29 03:20:20;;;;;;;;;;;21.10;54.50;;;;;;484299;246;1187;-74
2022/08/29 03:22:21;;;;;;;;;;;21.00;54.70;;;;;;484400;246;1104;-74
2022/08/29 03:24:22;;;;;;;;;;;21.00;54.70;;;;;;484278;246;989;-74
2022/08/29 03:26:24;;;;;;;;;;;21.00;54.70;;;;;;484347;246;1067;-74
2022/08/29 03:28:25;;;;;;;;;;;20.90;54.80;;;;;;484273;246;1130;-74
2022/08/29 03:30:26;;;;;;;;;;;21.00;54.80;;;;;;484255;246;2172;-74
2022/08/29 03:32:28;;;;;;;;;;;21.00;54.70;;;;;;484355;246;1216;-75
2022/08/29 03:34:29;;;;;;;;;;;20.90;54.70;;;;;;484234;246;1250;-74
2022/08/29 03:36:31;;;;;;;;;;;21.00;54.90;;;;;;484473;246;1143;-74
2022/08/29 03:38:32;;;;;;;;;;;21.00;54.80;;;;;;484273;246;1190;-74
2022/08/29 03:40:33;;;;;;;;;;;21.10;54.50;;;;;;484323;246;1607;-74
2022/08/29 03:42:34;;;;;;;;;;;21.10;54.60;;;;;;484374;246;1149;-74
2022/08/29 03:44:36;;;;;;;;;;;21.10;54.40;;;;;;484309;246;1152;-74
2022/08/29 03:46:38;;;;;;;;;;;21.00;54.60;;;;;;484455;246;1196;-74
2022/08/29 03:48:38;;;;;;;;;;;21.00;54.60;;;;;;484218;246;1572;-74
2022/08/29 03:50:40;;;;;;;;;;;21.10;54.40;;;;;;484193;246;2192;-74
2022/08/29 03:52:42;;;;;;;;;;;21.00;54.50;;;;;;484258;246;1212;-74
2022/08/29 03:54:43;;;;;;;;;;;21.00;54.60;;;;;;484224;246;1110;-74
2022/08/29 03:56:45;;;;;;;;;;;20.90;54.70;;;;;;484280;246;1249;-74
2022/08/29 03:58:47;;;;;;;;;;;20.90;54.80;;;;;;484239;246;1230;-74
2022/08/29 04:00:48;;;;;;;;;;;21.00;54.90;;;;;;484257;246;1239;-74
2022/08/29 04:02:52;;;;;;;;;;;21.00;54.70;;;;;;484080;246;1118;-74
2022/08/29 04:05:09;;;;;;;;;;;21.00;54.70;;;;;;484050;246;1497;-74
2022/08/29 04:07:12;;;;;;;;;;;21.10;54.20;;;;;;484309;246;1133;-74
2022/08/29 04:09:12;;;;;;;;;;;21.00;54.50;;;;;;484320;246;1183;-74
2022/08/29 04:11:14;;;;;;;;;;;21.10;54.50;;;;;;484271;245;2257;-74
2022/08/29 04:13:15;;;;;;;;;;;21.20;54.20;;;;;;484385;246;1207;-74
2022/08/29 04:15:16;;;;;;;;;;;21.20;54.10;;;;;;484207;246;1113;-75
2022/08/29 04:17:18;;;;;;;;;;;21.00;54.30;;;;;;484227;246;1149;-74
2022/08/29 04:19:19;;;;;;;;;;;21.20;54.20;;;;;;484275;246;1170;-74
2022/08/29 04:21:20;;;;;;;;;;;21.10;54.10;;;;;;484203;246;1163;-74
2022/08/29 04:23:22;;;;;;;;;;;21.10;54.10;;;;;;484328;246;1026;-74
2022/08/29 04:25:23;;;;;;;;;;;21.10;54.10;;;;;;484205;246;1118;-74
2022/08/29 04:27:25;;;;;;;;;;;21.10;54.30;;;;;;484101;246;1140;-74
2022/08/29 04:29:26;;;;;;;;;;;21.00;54.50;;;;;;484339;246;1060;-74
2022/08/29 04:31:28;;;;;;;;;;;21.00;54.40;;;;;;484322;246;2149;-74
2022/08/29 04:33:29;;;;;;;;;;;21.00;54.30;;;;;;484347;246;1209;-74
2022/08/29 04:35:30;;;;;;;;;;;21.10;54.30;;;;;;484138;246;1061;-74
2022/08/29 04:37:32;;;;;;;;;;;21.00;54.30;;;;;;484342;246;1191;-74
2022/08/29 04:39:33;;;;;;;;;;;21.00;54.50;;;;;;484189;246;1150;-74
2022/08/29 04:41:34;;;;;;;;;;;21.00;54.30;;;;;;484241;246;1119;-74
2022/08/29 04:43:36;;;;;;;;;;;20.90;54.40;;;;;;484247;246;1115;-74
2022/08/29 04:45:39;;;;;;;;;;;20.80;54.70;;;;;;484248;246;1110;-74
2022/08/29 04:47:38;;;;;;;;;;;20.90;54.50;;;;;;484143;246;1491;-74
2022/08/29 04:49:41;;;;;;;;;;;20.90;54.50;;;;;;484255;246;1180;-74
2022/08/29 04:51:41;;;;;;;;;;;20.90;54.40;;;;;;484275;242;2209;-74
2022/08/29 04:53:42;;;;;;;;;;;21.00;54.30;;;;;;484234;245;1177;-74
2022/08/29 04:55:44;;;;;;;;;;;21.20;54.10;;;;;;484271;246;1233;-74
2022/08/29 04:57:45;;;;;;;;;;;21.10;54.00;;;;;;484286;246;1162;-74
2022/08/29 04:59:47;;;;;;;;;;;21.00;54.40;;;;;;484322;246;1089;-74
2022/08/29 05:01:48;;;;;;;;;;;21.00;54.50;;;;;;484415;246;1179;-74
2022/08/29 05:03:50;;;;;;;;;;;21.00;54.30;;;;;;484353;246;1156;-74
2022/08/29 05:05:51;;;;;;;;;;;21.10;54.20;;;;;;484182;245;1454;-74
2022/08/29 05:07:52;;;;;;;;;;;21.10;54.20;;;;;;484213;246;1169;-74
2022/08/29 05:09:53;;;;;;;;;;;21.00;54.10;;;;;;484384;246;1076;-74
2022/08/29 05:11:55;;;;;;;;;;;21.20;53.90;;;;;;484221;246;2168;-74
2022/08/29 05:13:56;;;;;;;;;;;21.10;53.80;;;;;;484382;245;1252;-75
2022/08/29 05:15:57;;;;;;;;;;;21.20;53.90;;;;;;484256;246;1163;-74
2022/08/29 05:17:59;;;;;;;;;;;21.20;53.80;;;;;;484225;246;1139;-74
2022/08/29 05:20:00;;;;;;;;;;;21.10;53.80;;;;;;484242;245;1135;-74
2022/08/29 05:22:01;;;;;;;;;;;21.20;53.80;;;;;;484476;246;1118;-74
2022/08/29 05:24:04;;;;;;;;;;;21.10;53.80;;;;;;484245;246;1061;-74
2022/08/29 05:26:04;;;;;;;;;;;21.20;54.00;;;;;;484224;246;1424;-74
2022/08/29 05:28:05;;;;;;;;;;;21.10;54.10;;;;;;484392;246;1162;-74
2022/08/29 05:30:07;;;;;;;;;;;21.10;54.20;;;;;;484249;246;1157;-74
2022/08/29 05:32:09;;;;;;;;;;;21.10;54.00;;;;;;484200;246;2195;-74
2022/08/29 05:34:10;;;;;;;;;;;21.20;53.90;;;;;;484250;246;1350;-75
2022/08/29 05:36:11;;;;;;;;;;;21.20;53.80;;;;;;484228;246;1202;-74
2022/08/29 05:38:13;;;;;;;;;;;21.20;53.90;;;;;;484321;246;1190;-74
2022/08/29 05:40:14;;;;;;;;;;;21.20;53.80;;;;;;484010;246;1487;-74
2022/08/29 05:42:15;;;;;;;;;;;21.10;54.10;;;;;;484367;246;1172;-74
2022/08/29 05:44:17;;;;;;;;;;;21.20;54.10;;;;;;484399;246;1098;-74
2022/08/29 05:46:18;;;;;;;;;;;21.20;54.00;;;;;;484422;246;1120;-74
2022/08/29 05:48:19;;;;;;;;;;;21.10;54.10;;;;;;484285;246;1125;-74
2022/08/29 05:50:21;;;;;;;;;;;21.10;54.20;;;;;;484324;246;1082;-74
2022/08/29 05:52:22;;;;;;;;;;;21.20;54.20;;;;;;484209;246;2149;-74
2022/08/29 05:54:23;;;;;;;;;;;21.20;54.00;;;;;;484167;246;1102;-74
2022/08/29 05:56:25;;;;;;;;;;;21.20;54.00;;;;;;484125;246;1126;-74
2022/08/29 05:58:27;;;;;;;;;;;21.30;53.90;;;;;;484212;246;1046;-74
2022/08/29 06:00:27;;;;;;;;;;;21.20;53.90;;;;;;484112;246;1201;-74
2022/08/29 06:02:29;;;;;;;;;;;21.30;53.90;;;;;;484165;246;1176;-74
2022/08/29 06:04:30;;;;;;;;;;;21.30;53.80;;;;;;484101;246;1105;-74
2022/08/29 06:06:31;;;;;;;;;;;21.50;53.60;;;;;;483996;246;1099;-74
2022/08/29 06:08:33;;;;;;;;;;;21.50;53.50;;;;;;484126;245;1091;-74
2022/08/29 06:10:34;;;;;;;;;;;21.50;53.30;;;;;;484134;246;1093;-74
2022/08/29 06:12:35;;;;;;;;;;;21.50;53.30;;;;;;484068;246;2165;-74
2022/08/29 06:14:37;;;;;;;;;;;21.40;53.60;;;;;;484142;246;1093;-74
2022/08/29 06:16:38;;;;;;;;;;;21.40;53.70;;;;;;484075;246;1117;-74
2022/08/29 06:18:40;;;;;;;;;;;21.30;54.10;;;;;;483992;246;1184;-74
2022/08/29 06:20:41;;;;;;;;;;;21.30;54.00;;;;;;484148;242;1089;-74
2022/08/29 06:22:42;;;;;;;;;;;21.30;53.80;;;;;;484047;246;1142;-74
2022/08/29 06:24:44;;;;;;;;;;;21.20;54.10;;;;;;484024;246;1106;-74
2022/08/29 06:26:45;;;;;;;;;;;21.20;54.30;;;;;;484190;246;1172;-74
2022/08/29 06:28:47;;;;;;;;;;;21.30;54.30;;;;;;484186;246;1109;-74
2022/08/29 06:30:48;;;;;;;;;;;21.20;54.40;;;;;;484081;246;1135;-74
2022/08/29 06:32:49;;;;;;;;;;;21.10;54.60;;;;;;484041;246;2207;-74
2022/08/29 06:34:51;;;;;;;;;;;21.20;54.70;;;;;;484117;246;1148;-74
2022/08/29 06:36:52;;;;;;;;;;;21.20;54.60;;;;;;484152;246;1166;-74
2022/08/29 06:38:53;;;;;;;;;;;21.20;54.50;;;;;;484121;246;1130;-74
2022/08/29 06:40:55;;;;;;;;;;;21.20;54.50;;;;;;484042;246;1151;-74
2022/08/29 06:42:56;;;;;;;;;;;21.20;54.60;;;;;;483913;243;1274;-74
2022/08/29 06:44:57;;;;;;;;;;;21.20;54.60;;;;;;484059;246;1170;-74
2022/08/29 06:46:59;;;;;;;;;;;21.20;54.60;;;;;;484090;246;1141;-74
2022/08/29 06:49:00;;;;;;;;;;;21.20;54.60;;;;;;484022;246;1160;-74
2022/08/29 06:51:01;;;;;;;;;;;21.20;54.80;;;;;;484145;246;1202;-74
2022/08/29 06:53:03;;;;;;;;;;;21.10;55.10;;;;;;483864;246;2199;-74
2022/08/29 06:55:04;;;;;;;;;;;21.10;55.10;;;;;;483781;246;1088;-74
2022/08/29 06:57:05;;;;;;;;;;;21.20;55.00;;;;;;483896;246;1168;-74
2022/08/29 06:59:07;;;;;;;;;;;21.20;54.80;;;;;;484005;246;1090;-74
2022/08/29 07:01:08;;;;;;;;;;;21.20;55.00;;;;;;484048;246;1125;-74
2022/08/29 07:03:09;;;;;;;;;;;21.20;54.90;;;;;;483876;246;1159;-74
2022/08/29 07:05:11;;;;;;;;;;;21.20;55.10;;;;;;483979;246;1098;-75
2022/08/29 07:07:12;;;;;;;;;;;21.30;54.70;;;;;;483896;246;1442;-74
2022/08/29 07:09:14;;;;;;;;;;;21.40;54.70;;;;;;483904;246;1226;-74
2022/08/29 07:11:15;;;;;;;;;;;21.40;54.70;;;;;;483939;246;1110;-74
2022/08/29 07:13:16;;;;;;;;;;;21.30;54.80;;;;;;483956;246;2200;-74
2022/08/29 07:15:18;;;;;;;;;;;21.30;54.90;;;;;;483949;246;1172;-74
2022/08/29 07:17:19;;;;;;;;;;;21.40;54.80;;;;;;483986;246;1103;-74
2022/08/29 07:19:20;;;;;;;;;;;21.30;54.80;;;;;;483898;246;1219;-74
2022/08/29 07:21:22;;;;;;;;;;;21.30;54.70;;;;;;483939;246;1325;-74
2022/08/29 07:23:23;;;;;;;;;;;21.40;54.90;;;;;;484042;246;1533;-74
2022/08/29 07:25:26;;;;;;;;;;;21.30;54.90;;;;;;484013;246;1062;-74
2022/08/29 07:27:26;;;;;;;;;;;21.30;54.90;;;;;;483830;246;1424;-74
2022/08/29 07:29:27;;;;;;;;;;;21.50;54.80;;;;;;484022;246;1016;-74
2022/08/29 07:31:29;;;;;;;;;;;21.50;54.60;;;;;;484028;246;1117;-74
2022/08/29 07:33:30;;;;;;;;;;;21.50;54.60;;;;;;484106;246;2176;-74
2022/08/29 07:35:32;;;;;;;;;;;21.50;54.80;;;;;;484144;246;1106;-74
2022/08/29 07:37:33;;;;;;;;;;;21.40;54.90;;;;;;483922;246;1110;-74
2022/08/29 07:39:34;;;;;;;;;;;21.50;55.00;;;;;;484100;246;1019;-74
2022/08/29 07:41:35;;;;;;;;;;;21.50;54.70;;;;;;484038;246;1130;-74
2022/08/29 07:43:37;;;;;;;;;;;21.60;54.80;;;;;;484126;246;1093;-74
2022/08/29 07:45:38;;;;;;;;;;;21.50;54.90;;;;;;484018;246;1026;-74
2022/08/29 07:47:39;;;;;;;;;;;21.40;55.00;;;;;;484116;246;1002;-74
2022/08/29 07:49:41;;;;;;;;;;;21.40;55.20;;;;;;483900;246;1083;-74
2022/08/29 07:51:42;;;;;;;;;;;21.40;55.30;;;;;;483632;246;1115;-74
2022/08/29 07:53:43;;;;;;;;;;;21.40;55.20;;;;;;483792;246;2180;-74
2022/08/29 07:55:45;;;;;;;;;;;21.40;55.50;;;;;;483841;246;1084;-74
2022/08/29 07:57:47;;;;;;;;;;;21.40;55.40;;;;;;483871;246;1107;-74
2022/08/29 07:59:47;;;;;;;;;;;21.40;55.30;;;;;;483968;246;1328;-74
2022/08/29 08:01:49;;;;;;;;;;;21.50;55.20;;;;;;483920;246;1142;-74
2022/08/29 08:03:50;;;;;;;;;;;21.60;54.90;;;;;;483891;246;1222;-74
2022/08/29 08:05:52;;;;;;;;;;;21.60;55.00;;;;;;484017;246;1108;-74
2022/08/29 08:07:53;;;;;;;;;;;21.60;55.00;;;;;;483886;246;1208;-74
2022/08/29 08:09:54;;;;;;;;;;;21.60;55.00;;;;;;483854;246;1035;-74
2022/08/29 08:11:55;;;;;;;;;;;21.70;54.90;;;;;;483846;246;1320;-74
2022/08/29 08:13:57;;;;;;;;;;;21.70;54.90;;;;;;484084;246;2188;-74
2022/08/29 08:15:58;;;;;;;;;;;21.70;54.80;;;;;;484099;245;1116;-74
2022/08/29 08:18:00;;;;;;;;;;;21.60;55.10;;;;;;484016;246;1156;-74
2022/08/29 08:20:01;;;;;;;;;;;21.50;55.30;;;;;;484010;246;1256;-74
2022/08/29 08:22:02;;;;;;;;;;;21.40;55.40;;;;;;483959;246;1181;-74
2022/08/29 08:24:03;;;;;;;;;;;21.40;55.80;;;;;;483995;246;1101;-74
2022/08/29 08:26:05;;;;;;;;;;;21.40;55.80;;;;;;484095;246;1111;-74
2022/08/29 08:28:06;;;;;;;;;;;21.30;56.00;;;;;;483851;246;1164;-74
2022/08/29 08:30:07;;;;;;;;;;;21.30;56.20;;;;;;483993;246;1213;-74
2022/08/29 08:32:27;;;;;;;;;;;21.20;56.30;;;;;;476963;247;2165;-74
2022/08/29 08:34:29;;;;;;;;;;;21.30;56.10;;;;;;474847;250;1167;-74
2022/08/29 08:36:29;;;;;;;;;;;21.40;55.90;;;;;;474747;250;1266;-74
2022/08/29 08:38:31;;;;;;;;;;;21.30;56.00;;;;;;473806;250;1177;-74
2022/08/29 08:40:32;;;;;;;;;;;21.50;55.80;;;;;;479239;247;1147;-74
2022/08/29 08:42:33;;;;;;;;;;;21.60;55.60;;;;;;481972;247;1070;-74
2022/08/29 08:44:35;;;;;;;;;;;21.60;55.40;;;;;;481935;247;1193;-74
2022/08/29 08:46:36;;;;;;;;;;;21.60;55.50;;;;;;482041;247;1114;-74
2022/08/29 08:48:38;;;;;;;;;;;21.60;55.40;;;;;;482086;247;1197;-74
2022/08/29 08:50:39;;;;;;;;;;;21.70;55.30;;;;;;481938;247;1193;-74
2022/08/29 08:52:41;;;;;;;;;;;21.80;55.10;;;;;;481978;247;2156;-74
2022/08/29 08:54:42;;;;;;;;;;;21.80;55.00;;;;;;482037;247;1095;-74
2022/08/29 08:56:44;;;;;;;;;;;21.90;55.00;;;;;;481064;247;1721;-74
2022/08/29 08:58:45;;;;;;;;;;;21.90;54.90;;;;;;481933;247;1294;-74
2022/08/29 09:00:46;;;;;;;;;;;21.80;54.90;;;;;;481856;247;1125;-74
2022/08/29 09:02:47;;;;;;;;;;;21.90;55.10;;;;;;481834;247;1084;-74
2022/08/29 09:04:49;;;;;;;;;;;21.80;55.10;;;;;;481042;247;1185;-74
2022/08/29 09:06:50;;;;;;;;;;;21.80;55.20;;;;;;481707;247;1202;-74
2022/08/29 09:08:52;;;;;;;;;;;21.90;55.20;;;;;;481305;247;1139;-74
2022/08/29 09:10:53;;;;;;;;;;;21.70;55.10;;;;;;481934;247;1072;-74
2022/08/29 09:12:54;;;;;;;;;;;21.70;55.10;;;;;;482014;247;2153;-74
2022/08/29 09:14:56;;;;;;;;;;;21.70;55.10;;;;;;482077;247;1206;-74
2022/08/29 09:16:57;;;;;;;;;;;21.70;55.30;;;;;;482146;247;1163;-74
2022/08/29 09:18:59;;;;;;;;;;;21.60;55.50;;;;;;482091;247;1092;-74
2022/08/29 09:21:00;;;;;;;;;;;21.60;55.50;;;;;;482025;247;1204;-74
2022/08/29 09:23:01;;;;;;;;;;;21.60;55.40;;;;;;482023;247;1099;-74
2022/08/29 09:25:03;;;;;;;;;;;21.60;55.40;;;;;;482039;247;1252;-74
2022/08/29 09:27:05;;;;;;;;;;;21.50;55.90;;;;;;482016;247;1182;-74
2022/08/29 09:29:08;;;;;;;;;;;21.40;56.00;;;;;;482069;247;1180;-74
2022/08/29 09:31:08;;;;;;;;;;;21.40;56.00;;;;;;481796;247;1431;-74
2022/08/29 09:33:09;;;;;;;;;;;21.50;56.00;;;;;;482173;247;2184;-74
2022/08/29 09:35:10;;;;;;;;;;;21.60;55.80;;;;;;480948;247;1129;-74
2022/08/29 09:37:11;;;;;;;;;;;21.70;55.60;;;;;;481502;247;1103;-74
2022/08/29 09:39:13;;;;;;;;;;;21.70;55.40;;;;;;481101;247;1072;-74
2022/08/29 09:41:14;;;;;;;;;;;21.70;55.40;;;;;;482006;247;1135;-74
2022/08/29 09:43:15;;;;;;;;;;;21.70;55.50;;;;;;482026;247;1139;-74
2022/08/29 09:45:17;;;;;;;;;;;21.70;55.70;;;;;;481914;247;1201;-74
2022/08/29 09:47:18;;;;;;;;;;;21.70;55.40;;;;;;481849;247;1098;-74
2022/08/29 09:49:20;;;;;;;;;;;21.70;55.60;;;;;;481987;247;1118;-74
2022/08/29 09:51:22;;;;;;;;;;;21.70;55.70;;;;;;481963;247;1268;-74
2022/08/29 09:53:22;;;;;;;;;;;21.70;55.60;;;;;;482035;247;2196;-74
2022/08/29 09:55:24;;;;;;;;;;;21.70;55.70;;;;;;482074;247;1315;-74
2022/08/29 09:57:25;;;;;;;;;;;21.70;55.80;;;;;;482032;247;1262;-74
2022/08/29 09:59:26;;;;;;;;;;;21.70;55.80;;;;;;481932;247;1148;-74
2022/08/29 10:01:27;;;;;;;;;;;21.70;55.80;;;;;;481973;243;1183;-74
2022/08/29 10:03:29;;;;;;;;;;;21.70;55.90;;;;;;481971;247;1133;-74
2022/08/29 10:05:30;;;;;;;;;;;21.70;56.00;;;;;;481989;247;1155;-74
2022/08/29 10:07:32;;;;;;;;;;;21.70;56.00;;;;;;481981;247;1177;-74
2022/08/29 10:09:33;;;;;;;;;;;21.70;56.00;;;;;;482092;247;1463;-74
2022/08/29 10:11:34;;;;;;;;;;;21.80;56.00;;;;;;481780;247;1149;-74
2022/08/29 10:13:36;;;;;;;;;;;21.90;55.70;;;;;;482034;247;2168;-74
2022/08/29 10:15:37;;;;;;;;;;;21.90;55.60;;;;;;481928;247;1174;-74
2022/08/29 10:19:58;;;;;;;;;;;21.80;55.40;;;;;;482192;247;1105;-74
2022/08/29 10:21:59;;;;;;;;;;;21.80;55.70;;;;;;482078;247;1217;-74
2022/08/29 10:24:02;;;;;;;;;;;21.80;55.80;;;;;;482166;247;1031;-74
2022/08/29 10:26:03;;;;;;;;;;;21.70;56.00;;;;;;482045;247;1394;-74
2022/08/29 10:28:03;;;;;;;;;;;21.70;56.10;;;;;;482020;247;1376;-74
2022/08/29 10:30:04;;;;;;;;;;;21.90;56.00;;;;;;482008;247;1078;-74
2022/08/29 10:32:06;;;;;;;;;;;21.80;55.70;;;;;;481957;247;1236;-74
2022/08/29 10:34:07;;;;;;;;;;;21.90;55.70;;;;;;482101;247;2181;-74
2022/08/29 10:36:09;;;;;;;;;;;21.90;55.80;;;;;;482124;247;1513;-74
2022/08/29 10:38:11;;;;;;;;;;;22.00;55.30;;;;;;482141;247;1102;-74
2022/08/29 10:40:11;;;;;;;;;;;22.20;55.10;;;;;;482070;247;1431;-74
2022/08/29 10:42:13;;;;;;;;;;;22.20;55.00;;;;;;482000;247;1240;-74
2022/08/29 10:44:16;;;;;;;;;;;22.30;54.80;;;;;;481962;247;1156;-74
2022/08/29 10:46:16;;;;;;;;;;;22.40;54.70;;;;;;481890;247;1335;-74
2022/08/29 10:48:17;;;;;;;;;;;22.40;54.60;;;;;;482059;247;1386;-74
2022/08/29 10:50:18;;;;;;;;;;;22.40;54.50;;;;;;482067;247;1259;-74
2022/08/29 10:52:19;;;;;;;;;;;22.40;54.40;;;;;;481967;247;1170;-74
2022/08/29 10:54:21;;;;;;;;;;;22.40;54.30;;;;;;482127;247;2201;-74
2022/08/29 10:56:22;;;;;;;;;;;22.40;54.30;;;;;;482148;247;1200;-74
2022/08/29 10:58:24;;;;;;;;;;;22.40;54.50;;;;;;482004;247;1155;-74
2022/08/29 11:00:25;;;;;;;;;;;22.40;54.60;;;;;;481958;247;1473;-74
2022/08/29 11:02:26;;;;;;;;;;;22.50;54.50;;;;;;481865;247;1147;-74
2022/08/29 11:04:27;;;;;;;;;;;22.50;54.40;;;;;;481892;247;1108;-74
2022/08/29 11:06:29;;;;;;;;;;;22.40;54.40;;;;;;482038;247;1198;-74
2022/08/29 11:08:30;;;;;;;;;;;22.50;54.40;;;;;;482013;247;1133;-74
2022/08/29 11:10:32;;;;;;;;;;;22.50;54.40;;;;;;482043;247;1121;-74
2022/08/29 11:12:33;;;;;;;;;;;22.50;54.30;;;;;;482186;247;1117;-74
2022/08/29 11:14:35;;;;;;;;;;;22.50;54.30;;;;;;482068;247;2161;-74
2022/08/29 11:16:36;;;;;;;;;;;22.60;54.30;;;;;;482189;247;1081;-75
2022/08/29 11:18:37;;;;;;;;;;;22.50;54.30;;;;;;481842;247;1064;-74
2022/08/29 11:20:38;;;;;;;;;;;22.60;54.20;;;;;;481938;247;1082;-74
2022/08/29 11:22:40;;;;;;;;;;;22.60;54.10;;;;;;482153;247;1076;-74
2022/08/29 11:24:42;;;;;;;;;;;22.60;54.20;;;;;;481963;247;1113;-74
2022/08/29 11:26:42;;;;;;;;;;;22.70;54.10;;;;;;482024;247;1370;-74
2022/08/29 11:28:44;;;;;;;;;;;22.70;53.90;;;;;;481978;247;1052;-74
2022/08/29 11:30:45;;;;;;;;;;;22.80;53.80;;;;;;482024;243;1129;-74
2022/08/29 11:32:46;;;;;;;;;;;22.70;53.80;;;;;;481954;243;1078;-74
2022/08/29 11:34:48;;;;;;;;;;;22.70;53.80;;;;;;482065;247;2197;-74
2022/08/29 11:36:49;;;;;;;;;;;22.70;53.80;;;;;;482127;247;1178;-74
2022/08/29 11:38:50;;;;;;;;;;;22.70;53.80;;;;;;482175;247;1097;-74
2022/08/29 11:40:52;;;;;;;;;;;22.80;53.70;;;;;;481989;247;1061;-74
2022/08/29 11:42:53;;;;;;;;;;;22.80;53.70;;;;;;482083;247;1160;-74
2022/08/29 11:44:54;;;;;;;;;;;22.70;53.60;;;;;;482023;247;1270;-74
2022/08/29 11:46:56;;;;;;;;;;;22.80;53.50;;;;;;482056;247;1304;-74
2022/08/29 11:48:57;;;;;;;;;;;22.80;53.40;;;;;;481961;247;1192;-74
2022/08/29 11:50:58;;;;;;;;;;;22.80;53.20;;;;;;482061;247;1073;-74
2022/08/29 11:53:00;;;;;;;;;;;22.80;53.00;;;;;;481995;247;1235;-74
2022/08/29 11:55:01;;;;;;;;;;;22.80;53.10;;;;;;481908;247;2188;-74
2022/08/29 11:57:02;;;;;;;;;;;22.70;53.10;;;;;;482062;247;1111;-74
2022/08/29 11:59:04;;;;;;;;;;;22.70;53.20;;;;;;482195;247;1208;-74
2022/08/29 12:01:05;;;;;;;;;;;22.70;53.30;;;;;;482017;247;1260;-74
2022/08/29 12:03:06;;;;;;;;;;;22.60;53.40;;;;;;482106;247;1194;-74